createdAt,value
2023-02-26T00:01:25.386Z,1.26
2023-02-26T00:03:59.223Z,1.21
2023-02-26T00:06:32.838Z,1.17
2023-02-26T00:09:05.422Z,1.11
2023-02-26T00:11:38.288Z,1.06
2023-02-26T00:14:14.573Z,1.11
2023-02-26T00:16:51.632Z,1.03
2023-02-26T00:19:24.337Z,0.95
2023-02-26T00:21:57.316Z,0.97
2023-02-26T00:24:28.992Z,0.92
2023-02-26T00:27:01.271Z,0.92
2023-02-26T00:29:34.113Z,0.95
2023-02-26T00:32:06.936Z,0.94
2023-02-26T00:34:40.531Z,0.98
2023-02-26T00:37:25.659Z,0.92
2023-02-26T00:40:11.999Z,0.92
2023-02-26T00:42:44.663Z,0.94
2023-02-26T00:45:17.834Z,0.93
2023-02-26T00:47:56.822Z,1.00
2023-02-26T00:50:30.720Z,1.04
2023-02-26T00:53:12.963Z,1.06
2023-02-26T00:55:44.650Z,1.13
2023-02-26T00:58:16.459Z,1.12
2023-02-26T01:00:48.742Z,1.18
2023-02-26T01:03:21.569Z,1.15
2023-02-26T01:05:51.965Z,1.17
2023-02-26T01:08:29.713Z,1.12
2023-02-26T01:11:02.431Z,1.10
2023-02-26T01:13:33.082Z,1.10
2023-02-26T01:16:10.300Z,1.09
2023-02-26T01:18:49.196Z,1.02
2023-02-26T01:21:27.964Z,1.00
2023-02-26T01:24:03.472Z,0.96
2023-02-26T01:26:35.582Z,0.92
2023-02-26T01:29:08.032Z,0.88
2023-02-26T01:31:50.274Z,0.81
2023-02-26T01:34:33.118Z,0.79
2023-02-26T01:37:13.607Z,0.79
2023-02-26T01:39:51.336Z,0.78
2023-02-26T01:42:26.825Z,0.77
2023-02-26T01:45:05.187Z,0.76
2023-02-26T01:47:46.774Z,0.74
2023-02-26T01:50:25.696Z,0.76
2023-02-26T01:53:22.752Z,0.70
2023-02-26T01:55:59.636Z,0.77
2023-02-26T01:58:35.111Z,0.74
2023-02-26T02:01:08.303Z,0.69
2023-02-26T02:03:43.004Z,0.70
2023-02-26T02:06:20.667Z,0.71
2023-02-26T02:08:53.425Z,0.66
2023-02-26T02:11:25.506Z,0.62
2023-02-26T02:14:11.370Z,0.55
2023-02-26T02:16:54.319Z,0.52
2023-02-26T02:19:51.805Z,0.52
2023-02-26T02:22:41.536Z,0.50
2023-02-26T02:25:41.841Z,0.50
2023-02-26T02:28:30.854Z,0.50
2023-02-26T02:31:09.357Z,0.46
2023-02-26T02:33:51.487Z,0.46
2023-02-26T02:36:30.542Z,0.49
2023-02-26T02:39:07.171Z,0.51
2023-02-26T02:41:44.820Z,0.50
2023-02-26T02:44:20.186Z,0.56
2023-02-26T02:46:57.681Z,0.54
2023-02-26T02:49:35.185Z,0.51
2023-02-26T02:52:13.931Z,0.49
2023-02-26T02:54:52.302Z,0.48
2023-02-26T02:57:29.661Z,0.41
2023-02-26T03:00:06.361Z,0.38
2023-02-26T03:02:44.347Z,0.38
2023-02-26T03:05:19.292Z,0.36
2023-02-26T03:07:57.681Z,0.40
2023-02-26T03:10:30.348Z,0.38
2023-02-26T03:13:02.593Z,0.39
2023-02-26T03:15:42.490Z,0.40
2023-02-26T03:18:26.520Z,0.42
2023-02-26T03:21:07.673Z,0.42
2023-02-26T03:23:46.346Z,0.35
2023-02-26T03:26:25.555Z,0.31
2023-02-26T03:29:03.925Z,0.26
2023-02-26T03:31:42.568Z,0.23
2023-02-26T03:34:24.154Z,0.25
2023-02-26T03:36:59.120Z,0.23
2023-02-26T03:39:39.046Z,0.23
2023-02-26T03:42:19.833Z,0.29
2023-02-26T03:44:59.509Z,0.29
2023-02-26T03:47:34.658Z,0.26
2023-02-26T03:50:09.932Z,0.23
2023-02-26T03:52:52.075Z,0.19
2023-02-26T03:55:50.394Z,0.18
2023-02-26T03:58:58.298Z,0.21
2023-02-26T04:01:32.868Z,0.17
2023-02-26T04:04:08.614Z,0.19
2023-02-26T04:06:40.850Z,0.23
2023-02-26T04:09:15.228Z,0.28
2023-02-26T04:11:48.773Z,0.29
2023-02-26T04:14:20.564Z,0.32
2023-02-26T04:16:51.666Z,0.28
2023-02-26T04:19:23.877Z,0.26
2023-02-26T04:21:55.811Z,0.23
2023-02-26T04:24:27.670Z,0.24
2023-02-26T04:27:00.174Z,0.18
2023-02-26T04:29:32.628Z,0.21
2023-02-26T04:32:04.817Z,0.20
2023-02-26T04:34:37.132Z,0.23
2023-02-26T04:37:08.913Z,0.22
2023-02-26T04:39:40.013Z,0.18
2023-02-26T04:42:14.104Z,0.21
2023-02-26T04:44:45.861Z,0.21
2023-02-26T04:47:18.169Z,0.26
2023-02-26T04:49:50.054Z,0.31
2023-02-26T04:52:21.866Z,0.32
2023-02-26T04:54:53.790Z,0.34
2023-02-26T04:57:25.502Z,0.34
2023-02-26T04:59:57.527Z,0.34
2023-02-26T05:02:32.417Z,0.36
2023-02-26T05:05:04.694Z,0.38
2023-02-26T05:07:36.431Z,0.37
2023-02-26T05:10:10.210Z,0.39
2023-02-26T05:12:42.061Z,0.42
2023-02-26T05:15:14.211Z,0.41
2023-02-26T05:17:47.888Z,0.46
2023-02-26T05:20:20.412Z,0.51
2023-02-26T05:22:50.813Z,0.51
2023-02-26T05:25:22.572Z,0.53
2023-02-26T05:27:54.352Z,0.55
2023-02-26T05:30:26.503Z,0.61
2023-02-26T05:32:58.631Z,0.71
2023-02-26T05:35:30.480Z,0.71
2023-02-26T05:38:02.204Z,0.72
2023-02-26T05:40:33.868Z,0.67
2023-02-26T05:43:05.821Z,0.68
2023-02-26T05:45:37.574Z,0.71
2023-02-26T05:48:11.126Z,0.79
2023-02-26T05:50:42.859Z,0.80
2023-02-26T05:53:14.556Z,0.82
2023-02-26T05:55:46.407Z,0.80
2023-02-26T05:58:18.109Z,0.76
2023-02-26T06:00:49.924Z,0.78
2023-02-26T06:03:22.284Z,0.79
2023-02-26T06:05:54.376Z,0.83
2023-02-26T06:08:26.729Z,0.90
2023-02-26T06:10:58.900Z,0.91
2023-02-26T06:13:30.940Z,0.91
2023-02-26T06:16:02.738Z,0.93
2023-02-26T06:18:35.167Z,0.92
2023-02-26T06:21:08.205Z,0.97
2023-02-26T06:23:40.056Z,0.94
2023-02-26T06:26:11.845Z,0.98
2023-02-26T06:28:43.668Z,1.03
2023-02-26T06:31:16.123Z,1.03
2023-02-26T06:33:48.070Z,1.05
2023-02-26T06:36:19.996Z,1.05
2023-02-26T06:38:51.686Z,1.05
2023-02-26T06:41:23.411Z,1.10
2023-02-26T06:43:55.529Z,1.14
2023-02-26T06:46:27.592Z,1.16
2023-02-26T06:49:00.330Z,1.25
2023-02-26T06:51:32.469Z,1.27
2023-02-26T06:54:04.412Z,1.27
2023-02-26T06:56:36.175Z,1.24
2023-02-26T06:59:08.058Z,1.23
2023-02-26T07:01:39.974Z,1.28
2023-02-26T07:04:12.419Z,1.29
2023-02-26T07:06:43.109Z,1.27
2023-02-26T07:09:15.284Z,1.28
2023-02-26T07:11:47.097Z,1.24
2023-02-26T07:14:18.970Z,1.21
2023-02-26T07:16:53.874Z,1.19
2023-02-26T07:19:25.629Z,1.14
2023-02-26T07:21:57.864Z,1.12
2023-02-26T07:24:30.139Z,1.15
2023-02-26T07:27:01.904Z,1.21
2023-02-26T07:29:33.770Z,1.27
2023-02-26T07:32:06.018Z,1.32
2023-02-26T07:34:38.291Z,1.33
2023-02-26T07:37:10.711Z,1.45
2023-02-26T07:39:42.436Z,1.49
2023-02-26T07:42:17.203Z,1.50
2023-02-26T07:44:49.019Z,1.75
2023-02-26T07:47:20.933Z,1.75
2023-02-26T07:49:52.717Z,1.74
2023-02-26T07:52:24.487Z,1.76
2023-02-26T07:54:56.386Z,1.80
2023-02-26T07:57:28.226Z,1.74
2023-02-26T08:00:00.031Z,1.85
2023-02-26T08:02:32.015Z,2.03
2023-02-26T08:05:04.283Z,2.05
2023-02-26T08:07:37.636Z,2.06
2023-02-26T08:10:13.884Z,2.10
2023-02-26T08:12:45.642Z,2.19
2023-02-26T08:15:18.203Z,2.17
2023-02-26T08:17:52.687Z,2.15
2023-02-26T08:20:24.698Z,2.29
2023-02-26T08:22:56.563Z,2.34
2023-02-26T08:25:28.381Z,2.34
2023-02-26T08:28:01.160Z,2.27
2023-02-26T08:30:31.467Z,2.37
2023-02-26T08:33:03.816Z,2.18
2023-02-26T08:35:34.623Z,2.23
2023-02-26T08:38:06.499Z,2.19
2023-02-26T08:40:42.386Z,2.16
2023-02-26T08:43:14.705Z,2.32
2023-02-26T08:45:49.560Z,2.39
2023-02-26T08:48:21.256Z,2.30
2023-02-26T08:50:53.773Z,2.40
2023-02-26T08:53:25.564Z,2.37
2023-02-26T08:55:57.228Z,2.39
2023-02-26T08:58:31.229Z,2.45
2023-02-26T09:01:03.821Z,2.54
2023-02-26T09:03:35.759Z,2.57
2023-02-26T09:06:07.994Z,2.65
2023-02-26T09:08:40.105Z,2.65
2023-02-26T09:11:12.085Z,2.67
2023-02-26T09:13:44.102Z,2.75
2023-02-26T09:16:16.627Z,2.78
2023-02-26T09:18:49.132Z,2.76
2023-02-26T09:21:20.921Z,2.71
2023-02-26T09:23:53.108Z,2.83
2023-02-26T09:26:25.388Z,2.81
2023-02-26T09:28:57.514Z,2.90
2023-02-26T09:31:29.403Z,2.82
2023-02-26T09:34:01.662Z,2.88
2023-02-26T09:36:33.486Z,2.93
2023-02-26T09:39:05.535Z,2.94
2023-02-26T09:41:42.443Z,3.09
2023-02-26T09:44:21.900Z,3.21
2023-02-26T09:47:06.923Z,3.33
2023-02-26T09:49:49.357Z,3.47
2023-02-26T09:52:25.585Z,3.59
2023-02-26T09:55:02.275Z,3.67
2023-02-26T09:57:37.069Z,3.63
2023-02-26T10:00:34.220Z,3.63
2023-02-26T10:03:19.937Z,3.67
2023-02-26T10:06:22.538Z,3.53
2023-02-26T10:09:21.656Z,3.68
2023-02-26T10:11:58.296Z,3.94
2023-02-26T10:14:37.084Z,4.06
2023-02-26T10:17:20.194Z,4.20
2023-02-26T10:19:57.350Z,4.34
2023-02-26T10:22:33.998Z,4.33
2023-02-26T10:25:12.120Z,4.31
2023-02-26T10:27:51.329Z,4.46
2023-02-26T10:30:31.605Z,4.59
2023-02-26T10:33:13.249Z,4.61
2023-02-26T10:35:52.107Z,4.38
2023-02-26T10:38:29.411Z,4.23
2023-02-26T10:41:05.867Z,4.25
2023-02-26T10:43:41.851Z,4.19
2023-02-26T10:46:27.847Z,4.07
2023-02-26T10:49:23.023Z,4.12
2023-02-26T10:51:55.428Z,4.12
2023-02-26T10:54:34.595Z,4.26
2023-02-26T10:57:07.239Z,4.48
2023-02-26T10:59:37.539Z,4.66
2023-02-26T11:02:37.784Z,4.72
2023-02-26T11:05:19.403Z,4.74
2023-02-26T11:07:55.573Z,4.39
2023-02-26T11:10:41.453Z,4.22
2023-02-26T11:13:13.907Z,4.49
2023-02-26T11:15:47.472Z,4.36
2023-02-26T11:18:24.580Z,4.40
2023-02-26T11:20:59.642Z,4.44
2023-02-26T11:23:34.529Z,4.56
2023-02-26T11:26:10.833Z,4.64
2023-02-26T11:28:47.366Z,4.62
2023-02-26T11:31:22.281Z,4.63
2023-02-26T11:33:56.849Z,4.67
2023-02-26T11:36:31.722Z,4.58
2023-02-26T11:39:08.291Z,4.56
2023-02-26T11:41:42.574Z,4.58
2023-02-26T11:44:19.368Z,4.59
2023-02-26T11:46:57.107Z,4.56
2023-02-26T11:49:30.555Z,4.50
2023-02-26T11:52:22.374Z,4.28
2023-02-26T11:55:00.663Z,4.26
2023-02-26T11:57:34.026Z,4.40
2023-02-26T12:00:21.735Z,4.51
2023-02-26T12:02:57.800Z,4.50
2023-02-26T12:05:29.973Z,4.59
2023-02-26T12:08:02.603Z,4.41
2023-02-26T12:10:41.863Z,4.26
2023-02-26T12:13:21.094Z,4.08
2023-02-26T12:15:59.843Z,4.04
2023-02-26T12:18:55.846Z,4.12
2023-02-26T12:21:45.362Z,4.18
2023-02-26T12:24:34.587Z,4.34
2023-02-26T12:27:15.246Z,4.35
2023-02-26T12:30:04.706Z,4.46
2023-02-26T12:32:52.393Z,4.48
2023-02-26T12:35:51.050Z,4.54
2023-02-26T12:38:36.094Z,4.46
2023-02-26T12:41:43.606Z,4.49
2023-02-26T12:44:32.990Z,4.57
2023-02-26T12:47:20.456Z,4.63
2023-02-26T12:50:10.609Z,4.61
2023-02-26T12:52:56.970Z,4.67
2023-02-26T12:55:39.682Z,4.74
2023-02-26T12:58:28.090Z,4.73
2023-02-26T13:01:16.281Z,4.71
2023-02-26T13:04:17.973Z,4.76
2023-02-26T13:07:07.122Z,4.90
2023-02-26T13:09:53.501Z,4.85
2023-02-26T13:12:37.786Z,4.71
2023-02-26T13:15:36.481Z,4.62
2023-02-26T13:18:16.691Z,4.55
2023-02-26T13:21:00.932Z,4.53
2023-02-26T13:23:37.700Z,4.52
2023-02-26T13:26:12.998Z,4.52
2023-02-26T13:28:48.984Z,4.45
2023-02-26T13:31:27.633Z,4.37
2023-02-26T13:34:03.614Z,4.38
2023-02-26T13:36:35.871Z,4.55
2023-02-26T13:39:24.161Z,4.75
2023-02-26T13:42:02.884Z,4.99
2023-02-26T13:44:43.715Z,5.32
2023-02-26T13:47:42.533Z,5.65
2023-02-26T13:50:28.311Z,5.89
2023-02-26T13:53:37.006Z,5.72
2023-02-26T13:56:17.212Z,5.50
2023-02-26T13:58:53.609Z,5.24
2023-02-26T14:01:33.730Z,5.14
2023-02-26T14:04:26.917Z,5.04
2023-02-26T14:07:01.631Z,4.91
2023-02-26T14:09:45.546Z,4.91
2023-02-26T14:12:35.043Z,4.81
2023-02-26T14:15:38.477Z,4.77
2023-02-26T14:18:20.717Z,4.73
2023-02-26T14:20:53.869Z,4.62
2023-02-26T14:23:38.268Z,4.78
2023-02-26T14:26:19.456Z,4.77
2023-02-26T14:29:15.780Z,4.72
2023-02-26T14:32:03.828Z,4.75
2023-02-26T14:34:44.029Z,4.83
2023-02-26T14:37:21.393Z,4.80
2023-02-26T14:39:59.014Z,4.79
2023-02-26T14:42:38.468Z,4.88
2023-02-26T14:45:24.488Z,4.98
2023-02-26T14:47:58.744Z,4.97
2023-02-26T14:50:40.467Z,4.76
2023-02-26T14:53:37.457Z,4.80
2023-02-26T14:56:19.965Z,4.94
2023-02-26T14:59:20.077Z,4.96
2023-02-26T15:02:02.844Z,4.92
2023-02-26T15:05:11.228Z,4.92
2023-02-26T15:08:01.465Z,4.80
2023-02-26T15:10:45.952Z,4.78
2023-02-26T15:13:32.940Z,4.77
2023-02-26T15:16:13.235Z,4.67
2023-02-26T15:19:12.293Z,4.66
2023-02-26T15:21:59.807Z,4.68
2023-02-26T15:24:33.582Z,4.70
2023-02-26T15:27:10.132Z,4.68
2023-02-26T15:29:44.139Z,4.57
2023-02-26T15:32:27.355Z,4.44
2023-02-26T15:35:02.587Z,4.36
2023-02-26T15:37:35.485Z,4.37
2023-02-26T15:40:09.837Z,4.46
2023-02-26T15:42:45.131Z,4.45
2023-02-26T15:45:22.644Z,4.28
2023-02-26T15:48:02.711Z,4.24
2023-02-26T15:50:37.850Z,4.16
2023-02-26T15:53:14.138Z,4.19
2023-02-26T15:55:51.597Z,4.20
2023-02-26T15:58:31.457Z,4.24
2023-02-26T16:01:05.059Z,4.25
2023-02-26T16:03:39.143Z,4.17
2023-02-26T16:06:16.889Z,4.01
2023-02-26T16:08:48.894Z,3.93
2023-02-26T16:11:22.436Z,3.90
2023-02-26T16:13:58.962Z,3.78
2023-02-26T16:16:40.556Z,3.71
2023-02-26T16:19:16.507Z,3.69
2023-02-26T16:21:49.585Z,3.64
2023-02-26T16:24:23.314Z,3.69
2023-02-26T16:27:01.928Z,3.76
2023-02-26T16:29:37.000Z,3.84
2023-02-26T16:32:12.916Z,3.86
2023-02-26T16:34:50.515Z,3.70
2023-02-26T16:37:32.122Z,3.58
2023-02-26T16:40:20.057Z,3.48
2023-02-26T16:43:01.973Z,3.44
2023-02-26T16:45:50.962Z,3.36
2023-02-26T16:48:27.279Z,3.31
2023-02-26T16:51:02.271Z,3.32
2023-02-26T16:53:40.195Z,3.30
2023-02-26T16:56:16.867Z,3.21
2023-02-26T16:58:52.557Z,3.18
2023-02-26T17:01:26.007Z,3.22
2023-02-26T17:04:04.158Z,3.13
2023-02-26T17:06:41.885Z,3.02
2023-02-26T17:09:31.663Z,3.00
2023-02-26T17:12:18.703Z,2.98
2023-02-26T17:14:56.908Z,2.90
2023-02-26T17:17:29.285Z,2.90
2023-02-26T17:20:00.930Z,2.88
2023-02-26T17:22:33.076Z,2.84
2023-02-26T17:25:06.571Z,2.73
2023-02-26T17:27:39.585Z,2.75
2023-02-26T17:30:17.372Z,2.71
2023-02-26T17:32:49.906Z,2.75
2023-02-26T17:35:21.882Z,2.68
2023-02-26T17:37:54.698Z,2.59
2023-02-26T17:40:32.339Z,2.60
2023-02-26T17:43:04.617Z,2.55
2023-02-26T17:45:39.109Z,2.52
2023-02-26T17:48:12.140Z,2.51
2023-02-26T17:50:47.881Z,2.47
2023-02-26T17:53:21.092Z,2.40
2023-02-26T17:55:56.273Z,2.37
2023-02-26T17:58:32.004Z,2.34
2023-02-26T18:01:04.577Z,2.32
2023-02-26T18:03:38.234Z,2.33
2023-02-26T18:06:13.398Z,2.29
2023-02-26T18:08:46.707Z,2.25
2023-02-26T18:11:20.517Z,2.18
2023-02-26T18:13:52.530Z,2.16
2023-02-26T18:16:33.306Z,2.14
2023-02-26T18:19:06.294Z,2.12
2023-02-26T18:21:38.108Z,2.15
2023-02-26T18:24:11.226Z,2.21
2023-02-26T18:26:43.446Z,2.24
2023-02-26T18:29:15.282Z,2.23
2023-02-26T18:31:47.220Z,2.32
2023-02-26T18:34:18.359Z,2.28
2023-02-26T18:36:50.493Z,2.34
2023-02-26T18:39:24.105Z,2.42
2023-02-26T18:41:55.927Z,2.44
2023-02-26T18:44:29.322Z,2.53
2023-02-26T18:47:01.483Z,2.45
2023-02-26T18:49:33.419Z,2.46
2023-02-26T18:52:05.294Z,2.47
2023-02-26T18:54:37.832Z,2.53
2023-02-26T18:57:10.205Z,2.67
2023-02-26T18:59:42.005Z,2.60
2023-02-26T19:02:15.576Z,2.49
2023-02-26T19:04:48.132Z,2.44
2023-02-26T19:07:20.051Z,2.42
2023-02-26T19:09:52.050Z,2.47
2023-02-26T19:12:26.274Z,2.51
2023-02-26T19:14:58.242Z,2.47
2023-02-26T19:17:30.016Z,2.45
2023-02-26T19:20:01.741Z,2.43
2023-02-26T19:22:34.232Z,2.41
2023-02-26T19:25:07.478Z,2.39
2023-02-26T19:27:39.724Z,2.38
2023-02-26T19:30:11.851Z,2.39
2023-02-26T19:32:43.893Z,2.39
2023-02-26T19:35:16.112Z,2.39
2023-02-26T19:37:48.374Z,2.47
2023-02-26T19:40:21.103Z,2.40
2023-02-26T19:42:53.606Z,2.36
2023-02-26T19:45:25.412Z,2.33
2023-02-26T19:47:57.181Z,2.31
2023-02-26T19:50:29.170Z,2.34
2023-02-26T19:53:00.889Z,2.36
2023-02-26T19:55:32.631Z,2.34
2023-02-26T19:58:04.855Z,2.31
2023-02-26T20:00:36.713Z,2.36
2023-02-26T20:03:09.284Z,2.25
2023-02-26T20:05:41.665Z,2.33
2023-02-26T20:08:13.579Z,2.51
2023-02-26T20:10:46.385Z,2.54
2023-02-26T20:13:18.186Z,2.42
2023-02-26T20:15:53.444Z,2.40
2023-02-26T20:18:27.509Z,2.40
2023-02-26T20:20:59.796Z,2.42
2023-02-26T20:23:34.591Z,2.41
2023-02-26T20:26:09.101Z,2.33
2023-02-26T20:28:40.909Z,2.26
2023-02-26T20:31:13.215Z,2.25
2023-02-26T20:33:45.655Z,2.29
2023-02-26T20:36:17.613Z,2.30
2023-02-26T20:38:49.947Z,2.21
2023-02-26T20:41:21.868Z,2.17
2023-02-26T20:43:53.847Z,2.14
2023-02-26T20:46:25.670Z,2.12
2023-02-26T20:48:59.750Z,2.15
2023-02-26T20:51:31.773Z,2.19
2023-02-26T20:54:03.630Z,2.23
2023-02-26T20:56:38.524Z,2.30
2023-02-26T20:59:10.580Z,2.33
2023-02-26T21:01:42.401Z,2.32
2023-02-26T21:04:14.403Z,2.27
2023-02-26T21:06:46.866Z,2.29
2023-02-26T21:09:18.557Z,2.25
2023-02-26T21:11:52.442Z,2.26
2023-02-26T21:14:26.712Z,2.23
2023-02-26T21:17:01.909Z,2.25
2023-02-26T21:19:34.656Z,2.28
2023-02-26T21:22:06.671Z,2.27
2023-02-26T21:24:38.393Z,2.34
2023-02-26T21:27:10.224Z,2.26
2023-02-26T21:29:42.091Z,2.28
2023-02-26T21:32:14.139Z,2.29
2023-02-26T21:34:47.134Z,2.29
2023-02-26T21:37:19.333Z,2.27
2023-02-26T21:39:51.257Z,2.23
2023-02-26T21:42:23.479Z,2.24
2023-02-26T21:44:55.166Z,2.33
2023-02-26T21:47:27.045Z,2.26
2023-02-26T21:49:58.682Z,2.25
2023-02-26T21:52:30.344Z,2.23
2023-02-26T21:55:02.095Z,2.23
2023-02-26T21:57:33.859Z,2.33
2023-02-26T22:00:10.080Z,2.30
2023-02-26T22:02:45.078Z,2.34
2023-02-26T22:05:17.191Z,2.33
2023-02-26T22:07:49.133Z,2.27
2023-02-26T22:10:21.051Z,2.26
2023-02-26T22:12:52.705Z,2.23
2023-02-26T22:15:24.411Z,2.22
2023-02-26T22:17:56.150Z,2.14
2023-02-26T22:20:28.162Z,2.18
2023-02-26T22:23:00.642Z,2.19
2023-02-26T22:25:32.681Z,2.23
2023-02-26T22:28:05.566Z,2.18
2023-02-26T22:30:37.736Z,2.13
2023-02-26T22:33:09.610Z,2.12
2023-02-26T22:35:41.981Z,2.13
2023-02-26T22:38:14.397Z,2.09
2023-02-26T22:40:46.089Z,2.11
2023-02-26T22:43:18.083Z,2.15
2023-02-26T22:45:50.454Z,2.03
2023-02-26T22:48:23.340Z,2.04
2023-02-26T22:50:55.270Z,1.99
2023-02-26T22:53:26.977Z,1.94
2023-02-26T22:55:59.092Z,1.96
2023-02-26T22:58:31.105Z,2.00
2023-02-26T23:01:04.999Z,1.96
2023-02-26T23:03:37.156Z,1.92
2023-02-26T23:06:10.366Z,1.86
2023-02-26T23:08:42.698Z,1.87
2023-02-26T23:11:14.412Z,1.79
2023-02-26T23:13:46.188Z,1.78
2023-02-26T23:16:18.120Z,1.86
2023-02-26T23:18:49.849Z,1.87
2023-02-26T23:21:21.630Z,1.85
2023-02-26T23:23:53.302Z,1.82
2023-02-26T23:26:25.288Z,1.79
2023-02-26T23:28:57.027Z,1.72
2023-02-26T23:31:29.838Z,1.73
2023-02-26T23:34:01.912Z,1.63
2023-02-26T23:36:33.691Z,1.53
2023-02-26T23:39:06.584Z,1.49
2023-02-26T23:41:38.427Z,1.47
2023-02-26T23:44:12.560Z,1.41
2023-02-26T23:46:45.231Z,1.41
2023-02-26T23:49:17.346Z,1.39
2023-02-26T23:51:49.335Z,1.35
2023-02-26T23:54:20.965Z,1.37
2023-02-26T23:56:53.015Z,1.35
2023-02-26T23:59:24.855Z,1.18
